createdAt,value
2019-01-18T00:00:04.362Z,3.96
2019-01-18T00:02:34.188Z,3.99
2019-01-18T00:05:03.786Z,4.01
2019-01-18T00:07:33.360Z,4.03
2019-01-18T00:10:02.541Z,4.04
2019-01-18T00:12:31.859Z,4.03
2019-01-18T00:15:01.090Z,4.01
2019-01-18T00:17:30.198Z,3.99
2019-01-18T00:19:59.349Z,3.98
2019-01-18T00:22:28.448Z,4.00
2019-01-18T00:24:57.646Z,4.03
2019-01-18T00:27:26.887Z,4.03
2019-01-18T00:29:56.300Z,4.02
2019-01-18T00:32:25.895Z,3.98
2019-01-18T00:34:55.058Z,3.94
2019-01-18T00:37:24.367Z,3.94
2019-01-18T00:39:53.559Z,3.95
2019-01-18T00:42:22.754Z,3.99
2019-01-18T00:44:51.947Z,3.98
2019-01-18T00:47:21.087Z,3.96
2019-01-18T00:49:50.247Z,3.94
2019-01-18T00:52:19.581Z,3.90
2019-01-18T00:54:48.844Z,3.84
2019-01-18T00:57:18.097Z,3.80
2019-01-18T01:02:45.880Z,3.75
2019-01-18T01:05:17.858Z,3.74
2019-01-18T01:07:47.220Z,3.73
2019-01-18T01:10:16.689Z,3.74
2019-01-18T01:12:46.068Z,3.74
2019-01-18T01:15:16.542Z,3.73
2019-01-18T01:17:45.872Z,3.71
2019-01-18T01:20:16.517Z,3.72
2019-01-18T01:22:45.914Z,3.71
2019-01-18T01:25:15.176Z,3.71
2019-01-18T01:27:44.429Z,3.69
2019-01-18T01:30:16.752Z,3.70
2019-01-18T01:32:46.127Z,3.66
2019-01-18T01:35:15.579Z,3.64
2019-01-18T01:37:45.479Z,3.61
2019-01-18T01:40:17.427Z,3.60
2019-01-18T01:42:46.689Z,3.59
2019-01-18T01:45:17.056Z,3.58
2019-01-18T01:47:46.259Z,3.58
2019-01-18T01:50:18.330Z,3.58
2019-01-18T01:52:47.761Z,3.57
2019-01-18T01:55:17.755Z,3.55
2019-01-18T01:57:47.131Z,3.55
2019-01-18T02:00:19.199Z,3.54
2019-01-18T02:02:48.598Z,3.54
2019-01-18T02:05:17.892Z,3.54
2019-01-18T02:07:47.404Z,3.55
2019-01-18T02:10:17.470Z,3.57
2019-01-18T02:12:47.934Z,3.56
2019-01-18T02:15:22.395Z,3.54
2019-01-18T02:52:18.054Z,3.60
2019-01-18T02:54:47.201Z,3.60
2019-01-18T02:57:16.410Z,3.60
2019-01-18T02:59:46.532Z,3.61
2019-01-18T03:02:15.823Z,3.62
2019-01-18T03:04:45.149Z,3.61
2019-01-18T03:07:14.279Z,3.61
2019-01-18T03:09:43.937Z,3.63
2019-01-18T03:12:13.136Z,3.63
2019-01-18T03:14:42.331Z,3.64
2019-01-18T03:17:11.586Z,3.65
2019-01-18T03:19:40.864Z,3.64
2019-01-18T03:22:10.122Z,3.64
2019-01-18T03:24:39.582Z,3.67
2019-01-18T03:43:58.304Z,3.66
2019-01-18T03:46:27.593Z,3.65
2019-01-18T03:48:56.753Z,3.66
2019-01-18T03:51:26.121Z,3.68
2019-01-18T03:53:55.358Z,3.71
2019-01-18T03:56:24.659Z,3.72
2019-01-18T03:58:53.903Z,3.74
2019-01-18T04:01:23.307Z,3.77
2019-01-18T04:03:52.514Z,3.78
2019-01-18T04:06:21.799Z,3.79
2019-01-18T04:08:50.978Z,3.81
2019-01-18T04:11:20.179Z,3.81
2019-01-18T04:13:49.563Z,3.83
2019-01-18T04:16:19.016Z,3.82
2019-01-18T04:18:48.210Z,3.83
2019-01-18T04:21:17.542Z,3.86
2019-01-18T04:23:48.923Z,3.88
2019-01-18T04:26:18.419Z,3.90
2019-01-18T04:28:47.749Z,3.94
2019-01-18T04:31:17.010Z,3.96
2019-01-18T04:33:46.272Z,3.98
2019-01-18T04:36:15.541Z,4.01
2019-01-18T04:38:44.734Z,4.02
2019-01-18T04:41:13.954Z,4.05
2019-01-18T04:43:43.926Z,4.08
2019-01-18T04:46:16.747Z,4.11
2019-01-18T04:48:47.167Z,4.16
2019-01-18T04:51:16.366Z,4.18
2019-01-18T04:53:45.721Z,4.23
2019-01-18T04:56:14.965Z,4.27
2019-01-18T04:58:44.118Z,4.29
2019-01-18T05:01:13.234Z,4.32
2019-01-18T05:03:42.449Z,4.36
2019-01-18T05:06:11.652Z,4.38
2019-01-18T05:08:40.764Z,4.42
2019-01-18T05:11:10.003Z,4.44
2019-01-18T05:13:42.579Z,4.47
2019-01-18T05:16:11.874Z,4.49
2019-01-18T05:18:41.094Z,4.52
2019-01-18T05:21:10.273Z,4.54
2019-01-18T05:23:39.588Z,4.56
2019-01-18T05:26:08.709Z,4.58
2019-01-18T05:28:37.871Z,4.57
2019-01-18T05:31:07.103Z,4.58
2019-01-18T05:33:36.356Z,4.60
2019-01-18T05:36:06.684Z,4.61
2019-01-18T05:38:35.895Z,4.62
2019-01-18T05:41:05.488Z,4.63
2019-01-18T05:43:34.681Z,4.63
2019-01-18T05:46:03.892Z,4.63
2019-01-18T05:48:33.142Z,4.64
2019-01-18T05:51:02.281Z,4.64
2019-01-18T05:53:31.598Z,4.63
2019-01-18T06:21:54.665Z,4.63
2019-01-18T06:24:23.917Z,4.66
2019-01-18T06:26:53.227Z,4.68
2019-01-18T06:29:22.727Z,4.72
2019-01-18T06:31:51.982Z,4.75
2019-01-18T06:34:21.219Z,4.79
2019-01-18T06:36:50.767Z,4.82
2019-01-18T06:39:19.993Z,4.85
2019-01-18T06:41:53.004Z,4.88
2019-01-18T06:44:22.773Z,4.92
2019-01-18T06:46:52.749Z,4.95
2019-01-18T06:49:21.978Z,4.96
2019-01-18T06:51:51.184Z,4.98
2019-01-18T06:54:20.385Z,4.99
2019-01-18T06:56:49.854Z,5.00
2019-01-18T06:59:19.177Z,5.01
2019-01-18T07:01:48.452Z,5.02
2019-01-18T07:04:17.838Z,5.03
2019-01-18T07:06:47.292Z,5.03
2019-01-18T07:09:16.553Z,5.04
2019-01-18T07:11:45.765Z,5.05
2019-01-18T07:14:16.153Z,5.06
2019-01-18T07:16:46.090Z,5.09
2019-01-18T07:25:00.970Z,5.13
2019-01-18T07:27:32.168Z,5.14
2019-01-18T07:30:02.166Z,5.15
2019-01-18T07:32:32.819Z,5.17
2019-01-18T07:35:01.982Z,5.20
2019-01-18T07:37:32.133Z,5.23
2019-01-18T07:40:01.287Z,5.25
2019-01-18T07:42:31.045Z,5.26
2019-01-18T07:45:02.765Z,5.29
2019-01-18T07:47:31.907Z,5.31
2019-01-18T07:50:01.142Z,5.34
2019-01-18T07:52:30.400Z,5.36
2019-01-18T07:55:01.929Z,5.40
2019-01-18T07:57:31.060Z,5.43
2019-01-18T08:00:01.301Z,5.45
2019-01-18T08:02:31.509Z,5.47
2019-01-18T08:05:00.686Z,5.49
2019-01-18T08:07:30.734Z,5.50
2019-01-18T08:09:59.853Z,5.52
2019-01-18T08:12:29.242Z,5.53
2019-01-18T08:14:58.450Z,5.54
2019-01-18T08:17:28.142Z,5.56
2019-01-18T08:19:57.849Z,5.57
2019-01-18T08:22:30.102Z,5.57
2019-01-18T08:25:05.898Z,5.59
2019-01-18T08:27:37.683Z,5.60
2019-01-18T08:30:11.180Z,5.60
2019-01-18T08:32:42.609Z,5.62
2019-01-18T08:35:13.490Z,5.63
2019-01-18T08:37:42.799Z,5.65
2019-01-18T08:40:14.595Z,5.65
2019-01-18T08:42:44.892Z,5.67
2019-01-18T08:45:24.403Z,5.68
2019-01-18T08:47:56.351Z,5.70
2019-01-18T08:50:26.254Z,5.72
2019-01-18T08:52:57.041Z,5.73
2019-01-18T08:55:27.006Z,5.75
2019-01-18T08:57:58.000Z,5.76
2019-01-18T09:00:28.383Z,5.78
2019-01-18T09:02:59.031Z,5.80
2019-01-18T09:05:28.227Z,5.79
2019-01-18T09:08:03.268Z,5.81
2019-01-18T09:10:33.011Z,5.81
2019-01-18T09:13:02.399Z,5.84
2019-01-18T09:15:38.185Z,5.85
2019-01-18T09:18:18.605Z,5.87
2019-01-18T09:20:47.979Z,5.89
2019-01-18T09:23:20.665Z,5.92
2019-01-18T09:25:50.698Z,5.93
2019-01-18T09:28:21.775Z,5.95
2019-01-18T09:30:52.521Z,5.97
2019-01-18T09:33:22.910Z,5.99
2019-01-18T09:35:53.629Z,6.02
2019-01-18T09:38:23.004Z,6.07
2019-01-18T09:40:52.449Z,6.14
2019-01-18T09:43:25.381Z,6.23
2019-01-18T09:45:54.589Z,6.34
2019-01-18T09:48:24.951Z,6.46
2019-01-18T09:50:54.055Z,6.58
2019-01-18T09:53:23.352Z,6.67
2019-01-18T09:55:52.849Z,6.75
2019-01-18T09:58:22.057Z,6.79
2019-01-18T10:00:52.116Z,6.79
2019-01-18T10:03:22.014Z,6.79
2019-01-18T10:05:51.115Z,6.80
2019-01-18T10:08:20.795Z,6.79
2019-01-18T10:10:49.929Z,6.78
2019-01-18T10:13:19.101Z,6.77
2019-01-18T10:15:48.880Z,6.75
2019-01-18T10:18:18.181Z,6.74
2019-01-18T10:20:47.423Z,6.74
2019-01-18T10:23:16.965Z,6.75
2019-01-18T10:25:48.148Z,6.76
2019-01-18T10:28:17.798Z,6.77
2019-01-18T10:30:48.015Z,6.79
2019-01-18T10:33:20.643Z,6.81
2019-01-18T10:35:51.590Z,6.83
2019-01-18T10:38:27.373Z,6.85
2019-01-18T10:41:01.690Z,6.90
2019-01-18T10:43:33.245Z,6.93
2019-01-18T10:46:05.121Z,6.95
2019-01-18T10:48:34.263Z,6.95
2019-01-18T10:51:05.327Z,6.95
2019-01-18T10:53:34.892Z,6.94
2019-01-18T10:56:07.295Z,6.95
2019-01-18T10:58:36.450Z,6.96
2019-01-18T11:01:06.196Z,6.99
2019-01-18T11:03:36.070Z,7.00
2019-01-18T11:06:05.380Z,7.02
2019-01-18T11:08:34.607Z,7.06
2019-01-18T11:11:04.987Z,7.08
2019-01-18T11:13:34.211Z,7.13
2019-01-18T11:16:04.618Z,7.19
2019-01-18T11:18:33.767Z,7.28
2019-01-18T11:21:22.382Z,7.38
2019-01-18T11:23:51.511Z,7.50
2019-01-18T11:26:20.689Z,7.57
2019-01-18T11:28:49.930Z,7.65
2019-01-18T11:31:23.287Z,7.71
2019-01-18T11:33:49.095Z,7.72
2019-01-18T11:36:18.366Z,7.71
2019-01-18T11:38:48.467Z,7.68
2019-01-18T11:41:17.722Z,7.64
2019-01-18T11:43:47.622Z,7.61
2019-01-18T11:46:17.259Z,7.60
2019-01-18T11:48:50.330Z,7.59
2019-01-18T11:51:17.051Z,7.59
2019-01-18T11:53:46.996Z,7.59
2019-01-18T11:56:16.780Z,7.59
2019-01-18T11:58:46.374Z,7.61
2019-01-18T12:01:16.207Z,7.61
2019-01-18T12:03:45.508Z,7.63
2019-01-18T12:06:15.695Z,7.67
2019-01-18T12:08:46.218Z,7.72
2019-01-18T12:11:15.406Z,7.76
2019-01-18T12:13:45.842Z,7.80
2019-01-18T12:16:15.471Z,7.84
2019-01-18T12:18:45.733Z,7.87
2019-01-18T12:21:15.338Z,7.91
2019-01-18T12:23:47.280Z,7.92
2019-01-18T12:26:16.524Z,7.94
2019-01-18T12:28:45.655Z,7.94
2019-01-18T12:31:19.022Z,7.93
2019-01-18T12:33:48.655Z,7.92
2019-01-18T12:36:18.074Z,7.90
2019-01-18T12:38:48.366Z,7.86
2019-01-18T12:41:18.146Z,7.83
2019-01-18T12:43:47.403Z,7.79
2019-01-18T12:46:16.566Z,7.77
2019-01-18T12:48:46.229Z,7.79
2019-01-18T12:51:16.716Z,7.77
2019-01-18T12:53:48.279Z,7.79
2019-01-18T12:56:18.435Z,7.79
2019-01-18T12:58:47.682Z,7.80
2019-01-18T13:01:17.363Z,7.81
2019-01-18T13:03:47.830Z,7.82
2019-01-18T13:06:17.007Z,7.85
2019-01-18T13:08:47.855Z,7.89
2019-01-18T13:11:17.384Z,7.94
2019-01-18T13:13:47.722Z,7.99
2019-01-18T13:16:25.633Z,8.05
2019-01-18T13:18:58.021Z,8.11
2019-01-18T13:21:27.338Z,8.20
2019-01-18T13:23:57.281Z,8.27
2019-01-18T13:26:26.661Z,8.34
2019-01-18T13:28:57.471Z,8.38
2019-01-18T13:31:32.085Z,8.44
2019-01-18T13:34:03.094Z,8.45
2019-01-18T13:36:33.938Z,8.46
2019-01-18T13:39:03.294Z,8.45
2019-01-18T13:41:33.974Z,8.47
2019-01-18T13:44:05.309Z,8.47
2019-01-18T13:46:35.737Z,8.45
2019-01-18T13:49:05.858Z,8.42
2019-01-18T13:51:36.806Z,8.39
2019-01-18T13:54:07.071Z,8.35
2019-01-18T13:56:40.111Z,8.30
2019-01-18T13:59:09.362Z,8.28
2019-01-18T14:01:38.654Z,8.26
2019-01-18T14:04:08.423Z,8.24
2019-01-18T14:06:39.010Z,8.25
2019-01-18T14:09:10.214Z,8.29
2019-01-18T14:11:39.706Z,8.33
2019-01-18T14:14:09.512Z,8.39
2019-01-18T14:19:14.461Z,8.39
2019-01-18T14:21:45.250Z,8.39
2019-01-18T14:24:15.483Z,8.36
2019-01-18T14:27:06.253Z,8.33
2019-01-18T14:29:35.845Z,8.31
2019-01-18T14:32:05.095Z,8.30
2019-01-18T14:34:36.020Z,8.29
2019-01-18T14:37:08.135Z,8.27
2019-01-18T14:39:41.618Z,8.26
2019-01-18T14:42:11.853Z,8.26
2019-01-18T14:44:41.794Z,8.29
2019-01-18T14:47:11.268Z,8.33
2019-01-18T14:49:42.354Z,8.35
2019-01-18T14:52:12.507Z,8.35
2019-01-18T14:54:43.125Z,8.31
2019-01-18T14:57:12.237Z,8.26
2019-01-18T14:59:42.950Z,8.23
2019-01-18T15:02:13.843Z,8.17
2019-01-18T15:04:45.881Z,8.13
2019-01-18T15:07:18.028Z,8.12
2019-01-18T15:09:49.245Z,8.09
2019-01-18T15:12:20.226Z,8.07
2019-01-18T15:14:52.626Z,8.03
2019-01-18T15:28:53.416Z,8.01
2019-01-18T15:31:23.028Z,8.01
2019-01-18T15:33:52.171Z,8.03
2019-01-18T15:36:21.669Z,8.04
2019-01-18T15:38:51.344Z,8.05
2019-01-18T15:41:20.560Z,8.07
2019-01-18T15:43:49.812Z,8.08
2019-01-18T15:46:19.234Z,8.07
2019-01-18T15:48:48.655Z,8.07
2019-01-18T15:51:20.508Z,8.05
2019-01-18T15:53:50.793Z,8.02
2019-01-18T15:56:21.814Z,8.00
2019-01-18T15:58:51.105Z,7.97
2019-01-18T16:01:21.469Z,7.96
2019-01-18T16:03:50.537Z,7.94
2019-01-18T16:06:19.874Z,7.93
2019-01-18T16:08:49.279Z,7.93
2019-01-18T16:11:25.759Z,7.91
2019-01-18T16:13:55.461Z,7.89
2019-01-18T16:16:32.250Z,7.88
2019-01-18T16:19:01.473Z,7.89
2019-01-18T16:21:30.711Z,7.89
2019-01-18T16:23:59.913Z,7.87
2019-01-18T16:26:29.229Z,7.85
2019-01-18T16:28:59.018Z,7.84
2019-01-18T16:31:30.335Z,7.83
2019-01-18T16:34:03.580Z,7.80
2019-01-18T16:36:32.986Z,7.78
2019-01-18T16:39:03.721Z,7.77
2019-01-18T16:41:34.282Z,7.75
2019-01-18T16:44:04.179Z,7.74
2019-01-18T16:46:33.523Z,7.72
2019-01-18T16:49:02.816Z,7.71
2019-01-18T16:51:32.088Z,7.71
2019-01-18T16:54:02.945Z,7.69
2019-01-18T16:56:33.200Z,7.69
2019-01-18T17:00:22.013Z,7.70
2019-01-18T17:02:51.850Z,7.70
2019-01-18T17:05:22.110Z,7.70
2019-01-18T17:07:52.811Z,7.70
2019-01-18T17:10:23.790Z,7.69
2019-01-18T17:12:54.261Z,7.68
2019-01-18T17:15:23.538Z,7.70
2019-01-18T17:17:52.959Z,7.71
2019-01-18T17:20:28.256Z,7.72
2019-01-18T17:22:58.689Z,7.71
2019-01-18T17:25:28.735Z,7.70
2019-01-18T17:27:59.005Z,7.68
2019-01-18T17:30:28.183Z,7.67
2019-01-18T17:33:01.435Z,7.66
2019-01-18T17:35:41.164Z,7.66
2019-01-18T17:39:18.082Z,7.66
2019-01-18T17:43:04.085Z,7.64
2019-01-18T17:45:49.948Z,7.62
2019-01-18T17:48:27.118Z,7.59
2019-01-18T17:51:09.033Z,7.59
2019-01-18T17:53:58.270Z,7.58
2019-01-18T17:56:39.714Z,7.58
2019-01-18T17:59:25.994Z,7.58
2019-01-18T18:03:22.294Z,7.58
2019-01-18T18:06:28.010Z,7.57
2019-01-18T18:09:13.371Z,7.57
2019-01-18T18:11:53.200Z,7.58
2019-01-18T18:17:11.963Z,7.57
2019-01-18T18:20:02.269Z,7.55
2019-01-18T18:24:44.056Z,7.56
2019-01-18T18:27:36.031Z,7.56
2019-01-18T18:32:22.983Z,7.55
2019-01-18T18:35:03.877Z,7.57
2019-01-18T18:47:59.572Z,7.58
2019-01-18T18:52:50.247Z,7.56
2019-01-18T18:55:33.629Z,7.54
2019-01-18T18:58:16.336Z,7.54
2019-01-18T19:01:12.648Z,7.54
2019-01-18T19:03:57.563Z,7.53
2019-01-18T19:06:36.602Z,7.53
2019-01-18T19:09:20.244Z,7.53
2019-01-18T19:12:08.456Z,7.51
2019-01-18T19:14:55.997Z,7.51
2019-01-18T19:17:52.891Z,7.51
2019-01-18T19:20:33.207Z,7.50
2019-01-18T19:23:24.877Z,7.49
2019-01-18T19:26:24.801Z,7.47
2019-01-18T19:29:15.748Z,7.46
2019-01-18T19:31:59.517Z,7.47
2019-01-18T19:35:52.007Z,7.46
2019-01-18T19:40:36.456Z,7.46
2019-01-18T19:43:47.481Z,7.47
2019-01-18T19:46:35.540Z,7.47
2019-01-18T19:49:20.546Z,7.47
2019-01-18T19:51:58.650Z,7.46
2019-01-18T19:54:39.997Z,7.45
2019-01-18T19:57:36.020Z,7.41
2019-01-18T20:00:14.627Z,7.38
2019-01-18T20:03:57.485Z,7.35
2019-01-18T20:17:35.488Z,7.32
2019-01-18T20:20:14.622Z,7.37
2019-01-18T20:22:55.787Z,7.38
2019-01-18T20:25:37.584Z,7.37
2019-01-18T20:28:20.145Z,7.36
2019-01-18T20:31:08.200Z,7.34
2019-01-18T20:33:48.538Z,7.34
2019-01-18T20:36:42.056Z,7.34
2019-01-18T20:41:29.703Z,7.35
2019-01-18T20:44:10.543Z,7.38
2019-01-18T20:46:50.925Z,7.38
2019-01-18T20:49:37.506Z,7.39
2019-01-18T20:52:26.697Z,7.39
2019-01-18T20:57:12.856Z,7.39
2019-01-18T20:59:57.890Z,7.40
2019-01-18T21:03:04.377Z,7.39
2019-01-18T21:06:45.544Z,7.41
2019-01-18T21:11:31.443Z,7.43
2019-01-18T21:14:47.176Z,7.42
2019-01-18T21:19:34.666Z,7.41
2019-01-18T21:22:20.414Z,7.39
2019-01-18T21:24:58.968Z,7.38
2019-01-18T21:27:50.366Z,7.37
2019-01-18T21:30:29.013Z,7.35
2019-01-18T21:37:23.615Z,7.34
2019-01-18T21:40:07.122Z,7.32
2019-01-18T21:42:53.134Z,7.30
2019-01-18T21:47:42.155Z,7.30
2019-01-18T21:50:21.928Z,7.31
2019-01-18T21:55:06.803Z,7.31
2019-01-18T21:57:50.064Z,7.31
2019-01-18T22:00:28.911Z,7.30
2019-01-18T22:03:24.703Z,7.30
2019-01-18T22:06:04.001Z,7.29
2019-01-18T22:08:45.189Z,7.29
2019-01-18T22:11:23.947Z,7.28
2019-01-18T22:14:09.304Z,7.26
2019-01-18T22:16:58.798Z,7.24
2019-01-18T22:20:43.070Z,7.25
2019-01-18T22:23:28.458Z,7.23
2019-01-18T22:28:08.790Z,7.21
2019-01-18T22:30:47.851Z,7.16
2019-01-18T22:33:28.630Z,7.15
2019-01-18T22:39:12.849Z,7.13
2019-01-18T22:45:54.549Z,7.12
2019-01-18T22:48:34.105Z,7.12
2019-01-18T22:53:22.343Z,7.14
2019-01-18T22:56:06.950Z,7.15
2019-01-18T22:58:49.937Z,7.15
2019-01-18T23:01:39.461Z,7.15
2019-01-18T23:04:23.158Z,7.13
2019-01-18T23:07:04.335Z,7.12
2019-01-18T23:09:57.937Z,7.11
2019-01-18T23:12:54.166Z,7.10
2019-01-18T23:17:56.615Z,7.07
2019-01-18T23:20:36.879Z,7.05
2019-01-18T23:23:17.236Z,7.05
2019-01-18T23:26:02.456Z,7.04
2019-01-18T23:30:47.633Z,7.03
2019-01-18T23:33:26.366Z,7.00
2019-01-18T23:36:10.486Z,7.00
2019-01-18T23:41:26.305Z,6.99
2019-01-18T23:45:17.314Z,6.98
2019-01-18T23:50:01.967Z,6.94
2019-01-18T23:52:56.055Z,6.92
2019-01-18T23:55:51.382Z,6.91
